createdAt,value
2023-03-26T00:00:18.489Z,97644.97
2023-03-26T00:02:23.778Z,97645.91
2023-03-26T00:04:28.873Z,97649.97
2023-03-26T00:06:37.637Z,97641.59
2023-03-26T00:08:45.246Z,97644.06
2023-03-26T00:10:50.506Z,97647.53
2023-03-26T00:12:55.184Z,97649.97
2023-03-26T00:15:00.107Z,97653.28
2023-03-26T00:17:08.599Z,97653.28
2023-03-26T00:19:14.098Z,97655.03
2023-03-26T00:21:20.864Z,97652.34
2023-03-26T00:23:25.786Z,97653.19
2023-03-26T00:25:32.191Z,97651.09
2023-03-26T00:27:37.323Z,97650.97
2023-03-26T00:29:42.646Z,97661.53
2023-03-26T00:31:48.009Z,97656.78
2023-03-26T00:33:57.995Z,97657.25
2023-03-26T00:36:04.834Z,97664.56
2023-03-26T00:38:09.754Z,97653.03
2023-03-26T00:40:15.956Z,97659.38
2023-03-26T00:42:22.536Z,97649.53
2023-03-26T00:44:27.481Z,97645.31
2023-03-26T00:46:34.194Z,97645.19
2023-03-26T00:48:45.471Z,97657.56
2023-03-26T00:50:53.917Z,97652.78
2023-03-26T00:52:59.049Z,97644.63
2023-03-26T00:55:03.969Z,97642.25
2023-03-26T00:57:10.693Z,97640.41
2023-03-26T00:59:17.211Z,97639.91
2023-03-26T01:01:27.915Z,97631.84
2023-03-26T01:03:36.489Z,97635.91
2023-03-26T01:05:48.928Z,97632.38
2023-03-26T01:07:56.453Z,97640.38
2023-03-26T01:10:02.945Z,97641.09
2023-03-26T01:12:11.608Z,97642.53
2023-03-26T01:14:21.747Z,97634.53
2023-03-26T01:16:30.331Z,97632.91
2023-03-26T01:18:41.227Z,97635.59
2023-03-26T01:20:49.835Z,97643.16
2023-03-26T01:23:08.062Z,97639.41
2023-03-26T01:25:16.049Z,97635.84
2023-03-26T01:27:32.170Z,97629.53
2023-03-26T01:29:45.450Z,97634.66
2023-03-26T01:31:59.977Z,97633.44
2023-03-26T01:34:12.628Z,97629.03
2023-03-26T01:36:24.383Z,97621.31
2023-03-26T01:38:38.781Z,97629.00
2023-03-26T01:40:51.247Z,97629.00
2023-03-26T01:43:02.019Z,97633.25
2023-03-26T01:45:13.765Z,97629.69
2023-03-26T01:47:23.373Z,97630.97
2023-03-26T01:49:30.218Z,97631.28
2023-03-26T01:51:37.945Z,97624.78
2023-03-26T01:53:46.418Z,97623.66
2023-03-26T01:56:02.769Z,97630.19
2023-03-26T01:58:14.998Z,97636.28
2023-03-26T02:00:27.654Z,97631.22
2023-03-26T02:02:38.942Z,97629.56
2023-03-26T02:04:53.597Z,97618.44
2023-03-26T02:07:06.055Z,97621.88
2023-03-26T02:09:15.110Z,97615.28
2023-03-26T02:11:33.529Z,97615.44
2023-03-26T02:13:40.661Z,97613.44
2023-03-26T02:15:58.139Z,97603.78
2023-03-26T02:18:04.268Z,97599.53
2023-03-26T02:20:12.090Z,97599.63
2023-03-26T02:22:19.176Z,97586.13
2023-03-26T02:24:24.506Z,97592.78
2023-03-26T02:26:38.384Z,97588.53
2023-03-26T02:28:49.743Z,97582.41
2023-03-26T02:30:57.813Z,97576.03
2023-03-26T02:33:03.756Z,97575.72
2023-03-26T02:35:18.862Z,97566.19
2023-03-26T02:37:24.412Z,97566.97
2023-03-26T02:39:37.581Z,97561.97
2023-03-26T02:41:53.052Z,97566.09
2023-03-26T02:44:00.502Z,97563.38
2023-03-26T02:46:31.041Z,97561.78
2023-03-26T02:48:50.049Z,97559.47
2023-03-26T02:51:01.273Z,97555.25
2023-03-26T02:53:06.907Z,97555.59
2023-03-26T02:55:16.326Z,97558.19
2023-03-26T02:57:28.558Z,97548.16
2023-03-26T02:59:53.021Z,97543.34
2023-03-26T03:02:29.626Z,97552.69
2023-03-26T03:04:42.684Z,97549.22
2023-03-26T03:06:53.131Z,97545.75
2023-03-26T03:08:58.739Z,97542.59
2023-03-26T03:11:15.083Z,97546.34
2023-03-26T03:13:27.678Z,97543.72
2023-03-26T03:15:32.594Z,97535.84
2023-03-26T03:17:37.618Z,97541.94
2023-03-26T03:19:42.670Z,97532.41
2023-03-26T03:21:47.837Z,97533.53
2023-03-26T03:23:52.837Z,97532.75
2023-03-26T03:25:57.861Z,97526.22
2023-03-26T03:28:03.355Z,97524.47
2023-03-26T03:30:13.914Z,97529.47
2023-03-26T03:32:25.028Z,97525.25
2023-03-26T03:34:33.818Z,97524.22
2023-03-26T03:36:39.187Z,97526.53
2023-03-26T03:38:53.599Z,97514.16
2023-03-26T03:41:00.413Z,97511.38
2023-03-26T03:43:07.063Z,97513.03
2023-03-26T03:45:23.595Z,97508.56
2023-03-26T03:47:47.584Z,97510.31
2023-03-26T03:49:57.174Z,97504.13
2023-03-26T03:52:02.797Z,97507.66
2023-03-26T03:54:14.438Z,97508.44
2023-03-26T03:56:26.341Z,97508.44
2023-03-26T03:59:01.194Z,97507.66
2023-03-26T04:01:17.204Z,97511.03
2023-03-26T04:03:46.942Z,97511.22
2023-03-26T04:05:55.387Z,97507.31
2023-03-26T04:08:03.728Z,97516.69
2023-03-26T04:10:30.292Z,97516.69
2023-03-26T04:12:58.292Z,97521.66
2023-03-26T04:15:23.489Z,97505.88
2023-03-26T04:17:31.333Z,97508.41
2023-03-26T04:19:39.975Z,97507.94
2023-03-26T04:21:47.406Z,97508.19
2023-03-26T04:23:54.429Z,97510.50
2023-03-26T04:26:23.053Z,97516.50
2023-03-26T04:29:06.408Z,97507.25
2023-03-26T04:31:16.676Z,97498.69
2023-03-26T04:33:25.236Z,97504.75
2023-03-26T04:35:34.533Z,97491.69
2023-03-26T04:37:42.520Z,97493.66
2023-03-26T04:39:51.284Z,97490.03
2023-03-26T04:42:12.839Z,97488.28
2023-03-26T04:44:32.010Z,97485.97
2023-03-26T04:46:49.038Z,97483.22
2023-03-26T04:49:06.672Z,97483.09
2023-03-26T04:51:20.793Z,97476.00
2023-03-26T04:53:26.735Z,97477.75
2023-03-26T04:55:49.058Z,97476.16
2023-03-26T04:58:05.674Z,97470.69
2023-03-26T05:00:29.794Z,97465.34
2023-03-26T05:02:40.175Z,97464.31
2023-03-26T05:04:50.144Z,97464.91
2023-03-26T05:06:56.925Z,97458.59
2023-03-26T05:09:13.068Z,97457.66
2023-03-26T05:11:44.769Z,97456.78
2023-03-26T05:13:49.994Z,97442.75
2023-03-26T05:15:55.831Z,97447.00
2023-03-26T05:18:12.048Z,97441.69
2023-03-26T05:20:28.006Z,97435.50
2023-03-26T05:22:32.920Z,97438.25
2023-03-26T05:24:53.657Z,97431.25
2023-03-26T05:26:58.822Z,97436.13
2023-03-26T05:29:05.207Z,97424.78
2023-03-26T05:31:15.736Z,97418.50
2023-03-26T05:33:24.860Z,97420.97
2023-03-26T05:35:43.625Z,97412.13
2023-03-26T05:37:51.685Z,97406.03
2023-03-26T05:40:02.171Z,97411.06
2023-03-26T05:42:25.671Z,97400.84
2023-03-26T05:44:44.925Z,97398.09
2023-03-26T05:46:59.832Z,97393.03
2023-03-26T05:49:06.656Z,97388.38
2023-03-26T05:51:16.687Z,97389.00
2023-03-26T05:53:31.057Z,97381.16
2023-03-26T05:55:58.315Z,97370.69
2023-03-26T05:58:34.260Z,97363.72
2023-03-26T06:01:02.752Z,97354.22
2023-03-26T06:03:19.329Z,97349.75
2023-03-26T06:05:56.923Z,97349.63
2023-03-26T06:08:19.766Z,97346.13
2023-03-26T06:10:29.658Z,97338.09
2023-03-26T06:12:34.682Z,97340.38
2023-03-26T06:14:40.057Z,97332.28
2023-03-26T06:16:54.403Z,97328.59
2023-03-26T06:19:00.664Z,97325.69
2023-03-26T06:21:16.273Z,97322.16
2023-03-26T06:23:28.954Z,97323.69
2023-03-26T06:25:41.496Z,97319.50
2023-03-26T06:27:52.571Z,97312.53
2023-03-26T06:30:14.954Z,97314.22
2023-03-26T06:32:30.499Z,97313.38
2023-03-26T06:34:43.890Z,97321.84
2023-03-26T06:36:49.026Z,97318.19
2023-03-26T06:38:56.834Z,97320.47
2023-03-26T06:41:06.327Z,97315.88
2023-03-26T06:43:33.935Z,97308.69
2023-03-26T06:45:54.624Z,97311.84
2023-03-26T06:48:38.184Z,97313.53
2023-03-26T06:50:58.415Z,97303.38
2023-03-26T06:53:21.778Z,97292.81
2023-03-26T06:55:45.154Z,97301.28
2023-03-26T06:58:08.988Z,97302.81
2023-03-26T07:00:21.436Z,97300.06
2023-03-26T07:02:45.205Z,97297.94
2023-03-26T07:05:08.981Z,97293.69
2023-03-26T07:07:32.539Z,97296.28
2023-03-26T07:09:56.268Z,97302.03
2023-03-26T07:12:23.714Z,97308.59
2023-03-26T07:14:47.385Z,97304.00
2023-03-26T07:17:20.500Z,97297.53
2023-03-26T07:19:38.137Z,97300.97
2023-03-26T07:21:43.253Z,97296.09
2023-03-26T07:24:09.409Z,97289.31
2023-03-26T07:26:34.339Z,97286.63
2023-03-26T07:29:04.033Z,97283.22
2023-03-26T07:31:36.243Z,97282.19
2023-03-26T07:34:02.488Z,97272.81
2023-03-26T07:36:24.457Z,97268.09
2023-03-26T07:39:00.381Z,97261.63
2023-03-26T07:41:34.161Z,97262.38
2023-03-26T07:44:30.063Z,97254.16
2023-03-26T07:47:05.017Z,97244.50
2023-03-26T07:49:20.593Z,97233.94
2023-03-26T07:51:58.996Z,97234.00
2023-03-26T07:54:23.303Z,97230.16
2023-03-26T07:57:04.257Z,97228.47
2023-03-26T07:59:45.116Z,97227.56
2023-03-26T08:02:58.123Z,97217.84
2023-03-26T08:06:24.064Z,97211.94
2023-03-26T08:08:57.279Z,97206.81
2023-03-26T08:11:41.849Z,97198.88
2023-03-26T08:14:12.834Z,97206.59
2023-03-26T08:16:26.817Z,97203.88
2023-03-26T08:19:01.756Z,97209.84
2023-03-26T08:21:20.405Z,97211.44
2023-03-26T08:23:50.453Z,97211.91
2023-03-26T08:26:10.094Z,97205.88
2023-03-26T08:28:41.593Z,97201.56
2023-03-26T08:31:08.316Z,97209.38
2023-03-26T08:33:25.980Z,97204.19
2023-03-26T08:35:31.598Z,97198.16
2023-03-26T08:37:36.660Z,97192.13
2023-03-26T08:39:47.844Z,97189.75
2023-03-26T08:42:23.529Z,97185.25
2023-03-26T08:45:14.879Z,97173.06
2023-03-26T08:47:49.836Z,97180.34
2023-03-26T08:50:25.151Z,97173.19
2023-03-26T08:52:43.417Z,97186.69
2023-03-26T08:55:14.036Z,97168.31
2023-03-26T08:58:02.814Z,97175.53
2023-03-26T09:00:38.529Z,97170.47
2023-03-26T09:03:11.963Z,97173.00
2023-03-26T09:05:54.993Z,97174.63
2023-03-26T09:08:37.776Z,97158.94
2023-03-26T09:11:22.581Z,97165.41
2023-03-26T09:13:50.898Z,97172.31
2023-03-26T09:16:36.951Z,97168.78
2023-03-26T09:18:57.880Z,97175.44
2023-03-26T09:21:36.956Z,97167.53
2023-03-26T09:24:14.382Z,97171.72
2023-03-26T09:26:28.987Z,97164.50
2023-03-26T09:29:21.225Z,97166.09
2023-03-26T09:31:58.291Z,97164.03
2023-03-26T09:34:20.977Z,97160.03
2023-03-26T09:36:49.235Z,97166.94
2023-03-26T09:38:57.333Z,97170.63
2023-03-26T09:41:11.316Z,97168.69
2023-03-26T09:43:38.142Z,97174.44
2023-03-26T09:46:09.002Z,97180.63
2023-03-26T09:48:58.707Z,97180.53
2023-03-26T09:51:25.139Z,97174.75
2023-03-26T09:53:51.818Z,97184.31
2023-03-26T09:56:11.076Z,97185.91
2023-03-26T09:58:36.301Z,97182.38
2023-03-26T10:00:48.320Z,97186.00
2023-03-26T10:03:20.840Z,97188.78
2023-03-26T10:05:57.648Z,97186.00
2023-03-26T10:08:16.632Z,97174.84
2023-03-26T10:10:34.407Z,97176.03
2023-03-26T10:12:42.802Z,97174.84
2023-03-26T10:14:57.705Z,97164.19
2023-03-26T10:17:15.681Z,97160.66
2023-03-26T10:19:46.018Z,97159.66
2023-03-26T10:22:00.805Z,97156.78
2023-03-26T10:24:30.507Z,97155.38
2023-03-26T10:27:08.891Z,97159.56
2023-03-26T10:29:36.904Z,97168.38
2023-03-26T10:31:50.706Z,97157.78
2023-03-26T10:34:07.554Z,97152.41
2023-03-26T10:36:25.961Z,97144.44
2023-03-26T10:38:51.695Z,97130.13
2023-03-26T10:41:07.810Z,97141.47
2023-03-26T10:43:46.441Z,97138.09
2023-03-26T10:46:21.840Z,97133.84
2023-03-26T10:48:42.249Z,97131.78
2023-03-26T10:50:56.938Z,97126.88
2023-03-26T10:53:07.534Z,97109.28
2023-03-26T10:55:20.019Z,97108.94
2023-03-26T10:57:36.931Z,97104.19
2023-03-26T10:59:44.439Z,97117.75
2023-03-26T11:01:56.228Z,97107.75
2023-03-26T11:04:12.223Z,97112.09
2023-03-26T11:06:30.019Z,97101.53
2023-03-26T11:08:40.795Z,97105.72
2023-03-26T11:10:53.869Z,97106.16
2023-03-26T11:13:10.915Z,97097.09
2023-03-26T11:15:27.347Z,97086.94
2023-03-26T11:17:46.096Z,97078.97
2023-03-26T11:19:56.328Z,97076.72
2023-03-26T11:22:07.116Z,97084.72
2023-03-26T11:24:33.068Z,97071.91
2023-03-26T11:26:53.070Z,97056.78
2023-03-26T11:29:32.423Z,97052.03
2023-03-26T11:31:52.502Z,97042.69
2023-03-26T11:34:01.132Z,97029.56
2023-03-26T11:36:09.759Z,97032.47
2023-03-26T11:38:22.494Z,97034.22
2023-03-26T11:40:35.105Z,97034.81
2023-03-26T11:42:40.618Z,97035.94
2023-03-26T11:44:49.500Z,97034.75
2023-03-26T11:47:04.594Z,97037.69
2023-03-26T11:49:12.709Z,97039.63
2023-03-26T11:51:26.679Z,97037.69
2023-03-26T11:53:35.097Z,97029.69
2023-03-26T11:55:42.512Z,97032.47
2023-03-26T11:57:54.528Z,97031.38
2023-03-26T12:00:08.527Z,97030.56
2023-03-26T12:02:29.578Z,97026.81
2023-03-26T12:04:40.765Z,97028.22
2023-03-26T12:06:56.721Z,97028.84
2023-03-26T12:09:01.704Z,97019.63
2023-03-26T12:11:11.817Z,97018.41
2023-03-26T12:13:32.399Z,97022.59
2023-03-26T12:15:44.669Z,97028.63
2023-03-26T12:17:56.541Z,97012.16
2023-03-26T12:20:02.334Z,97001.09
2023-03-26T12:22:07.306Z,96990.97
2023-03-26T12:24:29.553Z,96989.13
2023-03-26T12:26:39.836Z,96985.63
2023-03-26T12:28:48.788Z,96974.69
2023-03-26T12:31:01.088Z,96969.03
2023-03-26T12:33:11.858Z,96957.97
2023-03-26T12:35:21.316Z,96951.31
2023-03-26T12:37:38.867Z,96949.34
2023-03-26T12:40:07.472Z,96942.22
2023-03-26T12:44:46.328Z,96938.03
2023-03-26T12:47:57.876Z,96935.81
2023-03-26T12:49:51.560Z,96940.31
2023-03-26T12:52:20.824Z,96931.00
2023-03-26T12:54:43.323Z,96932.69
2023-03-26T12:57:12.478Z,96920.59
2023-03-26T12:59:35.366Z,96928.94
2023-03-26T13:01:50.676Z,96910.69
2023-03-26T13:04:16.390Z,96907.56
2023-03-26T13:06:59.948Z,96904.88
2023-03-26T13:09:25.615Z,96903.84
2023-03-26T13:11:40.740Z,96895.06
2023-03-26T13:14:15.811Z,96885.72
2023-03-26T13:16:31.212Z,96888.94
2023-03-26T13:18:50.903Z,96884.56
2023-03-26T13:21:03.239Z,96883.00
2023-03-26T13:23:21.038Z,96877.47
2023-03-26T13:25:35.233Z,96869.66
2023-03-26T13:27:51.489Z,96874.13
2023-03-26T13:30:03.661Z,96861.50
2023-03-26T13:32:15.728Z,96850.03
2023-03-26T13:34:31.932Z,96848.78
2023-03-26T13:36:46.929Z,96839.31
2023-03-26T13:39:07.775Z,96834.47
2023-03-26T13:41:25.853Z,96829.63
2023-03-26T13:43:43.834Z,96836.25
2023-03-26T13:45:59.789Z,96838.44
2023-03-26T13:48:08.631Z,96819.56
2023-03-26T13:50:22.057Z,96817.94
2023-03-26T13:52:30.136Z,96827.78
2023-03-26T13:54:44.284Z,96825.19
2023-03-26T13:56:53.246Z,96830.47
2023-03-26T13:59:04.574Z,96837.31
2023-03-26T14:01:12.819Z,96845.69
2023-03-26T14:03:27.182Z,96850.47
2023-03-26T14:05:36.657Z,96849.53
2023-03-26T14:07:47.670Z,96865.91
2023-03-26T14:09:59.812Z,96871.25
2023-03-26T14:12:25.806Z,96874.25
2023-03-26T14:14:39.331Z,96869.66
2023-03-26T14:16:50.041Z,96863.72
2023-03-26T14:19:04.802Z,96861.13
2023-03-26T14:21:23.590Z,96835.06
2023-03-26T14:23:46.314Z,96833.91
2023-03-26T14:26:11.519Z,96834.13
2023-03-26T14:28:39.494Z,96825.03
2023-03-26T14:30:56.875Z,96810.63
2023-03-26T14:33:27.422Z,96806.25
2023-03-26T14:35:38.724Z,96799.25
2023-03-26T14:38:03.934Z,96787.75
2023-03-26T14:40:33.816Z,96784.72
2023-03-26T14:42:48.175Z,96773.91
2023-03-26T14:45:37.297Z,96771.88
2023-03-26T14:47:53.535Z,96762.47
2023-03-26T14:50:46.969Z,96768.50
2023-03-26T14:53:01.038Z,96767.81
2023-03-26T14:55:19.934Z,96770.03
2023-03-26T14:57:52.707Z,96760.78
2023-03-26T15:00:27.440Z,96757.59
2023-03-26T15:03:02.390Z,96751.81
2023-03-26T15:05:45.103Z,96752.56
2023-03-26T15:08:23.314Z,96748.47
2023-03-26T15:10:55.498Z,96751.31
2023-03-26T15:13:29.354Z,96736.72
2023-03-26T15:16:02.350Z,96743.31
2023-03-26T15:18:34.732Z,96744.28
2023-03-26T15:21:27.635Z,96736.31
2023-03-26T15:23:59.891Z,96735.84
2023-03-26T15:26:57.648Z,96728.72
2023-03-26T15:29:24.530Z,96730.78
2023-03-26T15:32:14.187Z,96728.44
2023-03-26T15:34:48.876Z,96734.84
2023-03-26T15:37:27.592Z,96735.44
2023-03-26T15:40:12.959Z,96733.22
2023-03-26T15:42:29.838Z,96735.81
2023-03-26T15:44:56.262Z,96738.03
2023-03-26T15:47:20.078Z,96741.13
2023-03-26T15:49:39.921Z,96738.00
2023-03-26T15:51:53.566Z,96732.09
2023-03-26T15:54:03.040Z,96741.72
2023-03-26T15:56:18.467Z,96742.19
2023-03-26T15:58:34.721Z,96739.69
2023-03-26T16:00:56.269Z,96744.56
2023-03-26T16:03:23.857Z,96736.72
2023-03-26T16:05:47.885Z,96745.13
2023-03-26T16:08:07.796Z,96747.72
2023-03-26T16:10:23.638Z,96746.28
2023-03-26T16:12:38.711Z,96747.44
2023-03-26T16:14:47.922Z,96745.53
2023-03-26T16:17:02.834Z,96750.97
2023-03-26T16:19:41.229Z,96746.91
2023-03-26T16:22:00.486Z,96749.66
2023-03-26T16:24:23.602Z,96745.69
2023-03-26T16:26:39.244Z,96746.88
2023-03-26T16:29:14.543Z,96741.03
2023-03-26T16:31:37.637Z,96747.97
2023-03-26T16:33:53.802Z,96747.66
2023-03-26T16:36:18.740Z,96738.94
2023-03-26T16:38:27.894Z,96741.19
2023-03-26T16:40:39.019Z,96741.41
2023-03-26T16:42:51.030Z,96748.31
2023-03-26T16:45:11.547Z,96758.41
2023-03-26T16:47:27.389Z,96757.72
2023-03-26T16:49:48.073Z,96752.94
2023-03-26T16:52:35.891Z,96751.25
2023-03-26T16:54:52.650Z,96749.59
2023-03-26T16:57:03.815Z,96744.25
2023-03-26T16:59:11.871Z,96744.69
2023-03-26T17:01:28.315Z,96743.03
2023-03-26T17:03:37.852Z,96744.81
2023-03-26T17:06:02.333Z,96749.09
2023-03-26T17:08:36.179Z,96745.97
2023-03-26T17:10:45.109Z,96747.19
2023-03-26T17:12:58.455Z,96748.47
2023-03-26T17:15:13.682Z,96751.59
2023-03-26T17:17:36.917Z,96761.31
2023-03-26T17:19:49.433Z,96755.16
2023-03-26T17:22:05.087Z,96768.06
2023-03-26T17:24:15.055Z,96771.94
2023-03-26T17:26:36.416Z,96774.97
2023-03-26T17:28:55.908Z,96782.78
2023-03-26T17:31:07.905Z,96775.38
2023-03-26T17:33:23.414Z,96783.81
2023-03-26T17:35:39.133Z,96779.63
2023-03-26T17:37:49.827Z,96777.44
2023-03-26T17:40:39.661Z,96786.63
2023-03-26T17:43:03.815Z,96786.09
2023-03-26T17:45:12.999Z,96794.38
2023-03-26T17:47:29.849Z,96793.19
2023-03-26T17:49:37.615Z,96798.75
2023-03-26T17:51:50.579Z,96807.16
2023-03-26T17:53:58.493Z,96805.56
2023-03-26T17:56:07.196Z,96811.94
2023-03-26T17:58:27.194Z,96817.03
2023-03-26T18:00:35.847Z,96820.69
2023-03-26T18:02:43.818Z,96827.44
2023-03-26T18:04:53.022Z,96822.44
2023-03-26T18:07:15.609Z,96835.13
2023-03-26T18:09:39.049Z,96827.53
2023-03-26T18:12:06.408Z,96842.81
2023-03-26T18:14:58.642Z,96846.84
2023-03-26T18:17:04.792Z,96844.28
2023-03-26T18:19:18.716Z,96847.41
2023-03-26T18:21:34.967Z,96851.53
2023-03-26T18:23:42.340Z,96850.44
2023-03-26T18:25:56.254Z,96843.19
2023-03-26T18:28:02.278Z,96847.75
2023-03-26T18:30:18.594Z,96850.75
2023-03-26T18:32:26.229Z,96850.47
2023-03-26T18:34:33.211Z,96851.50
2023-03-26T18:36:38.738Z,96856.78
2023-03-26T18:38:44.201Z,96859.38
2023-03-26T18:40:54.248Z,96852.53
2023-03-26T18:43:01.827Z,96855.38
2023-03-26T18:45:12.281Z,96861.78
2023-03-26T18:47:17.588Z,96850.13
2023-03-26T18:49:24.137Z,96864.69
2023-03-26T18:51:31.713Z,96852.28
2023-03-26T18:53:41.524Z,96859.78
2023-03-26T18:55:47.560Z,96862.16
2023-03-26T18:57:55.882Z,96857.06
2023-03-26T19:00:18.739Z,96862.81
2023-03-26T19:02:25.258Z,96865.31
2023-03-26T19:04:37.066Z,96871.31
2023-03-26T19:06:44.374Z,96866.25
2023-03-26T19:08:50.769Z,96861.22
2023-03-26T19:10:57.792Z,96861.66
2023-03-26T19:13:06.615Z,96867.53
2023-03-26T19:15:15.786Z,96863.03
2023-03-26T19:17:21.340Z,96873.88
2023-03-26T19:19:32.164Z,96877.56
2023-03-26T19:21:39.020Z,96882.03
2023-03-26T19:23:47.190Z,96883.97
2023-03-26T19:25:55.053Z,96881.56
2023-03-26T19:28:00.305Z,96892.06
2023-03-26T19:30:09.422Z,96883.94
2023-03-26T19:32:20.656Z,96885.06
2023-03-26T19:34:28.956Z,96887.28
2023-03-26T19:36:37.236Z,96894.06
2023-03-26T19:38:46.079Z,96886.06
2023-03-26T19:40:52.627Z,96889.25
2023-03-26T19:42:57.762Z,96893.03
2023-03-26T19:45:05.791Z,96884.41
2023-03-26T19:47:22.044Z,96881.66
2023-03-26T19:49:35.194Z,96880.91
2023-03-26T19:51:40.728Z,96885.25
2023-03-26T19:53:46.895Z,96889.94
2023-03-26T19:56:00.119Z,96893.19
2023-03-26T19:58:06.300Z,96883.16
2023-03-26T20:00:14.638Z,96883.72
2023-03-26T20:02:22.768Z,96882.88
2023-03-26T20:04:32.605Z,96881.41
2023-03-26T20:06:43.920Z,96895.31
2023-03-26T20:08:50.772Z,96883.69
2023-03-26T20:10:58.506Z,96881.22
2023-03-26T20:13:03.817Z,96877.38
2023-03-26T20:15:22.341Z,96880.75
2023-03-26T20:17:34.958Z,96881.09
2023-03-26T20:19:39.973Z,96887.34
2023-03-26T20:21:46.169Z,96894.78
2023-03-26T20:23:53.751Z,96896.31
2023-03-26T20:25:58.992Z,96893.19
2023-03-26T20:28:04.241Z,96891.25
2023-03-26T20:30:14.048Z,96890.00
2023-03-26T20:32:27.236Z,96895.63
2023-03-26T20:34:35.265Z,96897.56
2023-03-26T20:36:40.219Z,96892.88
2023-03-26T20:38:46.409Z,96900.31
2023-03-26T20:40:52.303Z,96892.97
2023-03-26T20:42:57.308Z,96895.97
2023-03-26T20:45:02.210Z,96893.78
2023-03-26T20:47:07.314Z,96895.19
2023-03-26T20:49:13.147Z,96886.47
2023-03-26T20:51:22.014Z,96887.41
2023-03-26T20:53:27.611Z,96897.72
2023-03-26T20:55:32.646Z,96893.78
2023-03-26T20:57:37.506Z,96903.16
2023-03-26T20:59:42.644Z,96898.50
2023-03-26T21:01:47.685Z,96896.97
2023-03-26T21:03:52.841Z,96900.66
2023-03-26T21:06:01.901Z,96909.72
2023-03-26T21:08:10.766Z,96913.81
2023-03-26T21:10:17.627Z,96913.63
2023-03-26T21:12:31.492Z,96914.41
2023-03-26T21:14:41.433Z,96922.72
2023-03-26T21:16:47.375Z,96916.19
2023-03-26T21:18:53.006Z,96911.47
2023-03-26T21:21:18.066Z,96910.63
2023-03-26T21:23:33.942Z,96922.91
2023-03-26T21:25:46.950Z,96914.78
2023-03-26T21:28:06.161Z,96919.03
2023-03-26T21:30:16.599Z,96907.41
2023-03-26T21:32:24.459Z,96903.63
2023-03-26T21:34:33.540Z,96909.88
2023-03-26T21:36:40.397Z,96903.50
2023-03-26T21:38:50.685Z,96902.72
2023-03-26T21:40:58.820Z,96904.22
2023-03-26T21:43:06.278Z,96902.19
2023-03-26T21:45:13.086Z,96904.34
2023-03-26T21:47:18.522Z,96900.34
2023-03-26T21:49:24.418Z,96899.03
2023-03-26T21:51:34.120Z,96901.38
2023-03-26T21:53:39.611Z,96897.47
2023-03-26T21:56:02.755Z,96904.84
2023-03-26T21:58:31.723Z,96906.44
2023-03-26T22:00:44.572Z,96908.47
2023-03-26T22:03:04.257Z,96901.44
2023-03-26T22:05:17.067Z,96906.69
2023-03-26T22:07:26.089Z,96904.22
2023-03-26T22:09:36.499Z,96904.22
2023-03-26T22:11:44.436Z,96904.56
2023-03-26T22:13:49.358Z,96903.28
2023-03-26T22:15:54.304Z,96898.97
2023-03-26T22:18:03.808Z,96897.16
2023-03-26T22:20:10.856Z,96901.84
2023-03-26T22:22:15.784Z,96903.47
2023-03-26T22:24:21.282Z,96894.94
2023-03-26T22:26:27.228Z,96900.31
2023-03-26T22:28:35.126Z,96905.34
2023-03-26T22:30:40.223Z,96910.34
2023-03-26T22:32:45.830Z,96909.88
2023-03-26T22:34:52.269Z,96918.47
2023-03-26T22:37:00.200Z,96914.47
2023-03-26T22:39:05.777Z,96914.47
2023-03-26T22:41:11.195Z,96923.06
2023-03-26T22:43:16.148Z,96924.66
2023-03-26T22:45:23.873Z,96922.34
2023-03-26T22:47:30.793Z,96925.66
2023-03-26T22:49:35.740Z,96929.78
2023-03-26T22:51:40.664Z,96923.78
2023-03-26T22:53:46.445Z,96934.44
2023-03-26T22:55:51.350Z,96941.44
2023-03-26T22:57:56.507Z,96940.88
2023-03-26T23:00:12.510Z,96937.94
2023-03-26T23:02:20.023Z,96942.94
2023-03-26T23:04:32.435Z,96954.53
2023-03-26T23:06:37.470Z,96948.84
2023-03-26T23:08:42.857Z,96949.50
2023-03-26T23:10:47.769Z,96956.13
2023-03-26T23:12:52.691Z,96950.44
2023-03-26T23:14:58.276Z,96958.00
2023-03-26T23:17:03.270Z,96959.38
2023-03-26T23:19:10.997Z,96949.94
2023-03-26T23:21:21.409Z,96965.59
2023-03-26T23:23:28.175Z,96965.19
2023-03-26T23:25:33.437Z,96973.28
2023-03-26T23:27:38.144Z,96967.94
2023-03-26T23:29:45.797Z,96974.81
2023-03-26T23:31:53.078Z,96978.19
2023-03-26T23:33:58.014Z,96984.19
2023-03-26T23:36:09.261Z,96984.28
2023-03-26T23:38:15.851Z,96992.28
2023-03-26T23:40:21.156Z,96987.41
2023-03-26T23:42:29.252Z,96989.41
2023-03-26T23:44:34.592Z,96997.56
2023-03-26T23:46:41.770Z,96997.72
2023-03-26T23:48:51.477Z,97002.81
2023-03-26T23:51:04.016Z,97005.19
2023-03-26T23:53:12.198Z,97004.94
2023-03-26T23:55:17.143Z,96998.63
2023-03-26T23:57:22.033Z,97001.19
2023-03-26T23:59:28.318Z,97011.13
